KHCR

Heber City Municipal - Russ McDonald Field Airport

Heber, Utah, USA
KHCR 200535Z 2006/2106 VRB03KT P6SM BKN035 FM200900 VRB03KT P6SM SCT035 BKN200
Issued Valid From Valid To
Jan-20 @ 05:35 UTC
(5 hours ago)
Jan-20 @ 06:00 UTC
(5 hours ago)
Jan-21 @ 06:00 UTC
(in 19 hours)
Expired Click to View Jan-20 @ 06:00 to Jan-20 @ 09:00
KHCR 200535Z 2006/2106 VRB03KT P6SM BKN035
Wind Visibility Clouds
Variable at 3 knots Greater than 6 miles
  • Broken at 3,500' AGL
From Jan-20 @ 09:00 to Jan-21 @ 06:00
FM200900 VRB03KT P6SM SCT035 BKN200
Wind Visibility Clouds
Variable at 3 knots Greater than 6 miles
  • Scattered at 3,500' AGL
  • Broken at 20,000' AGL
KHCR 200535Z 2006/2106 VRB03KT P6SM BKN035 FM200900 VRB03KT P6SM SCT035 BKN200
Issued Jan-20 @ 05:35 UTC
(5 hours ago)
Valid From Jan-20 @ 06:00 UTC
(5 hours ago)
Valid To Jan-21 @ 06:00 UTC
(in 19 hours)
Jan-20 @ 06:00 - Jan-20 @ 09:00
Wind Visibility
Variable at 3 knots Greater than 6 miles
Clouds
  • Broken at 3,500' AGL
From Jan-20 @ 09:00 - Jan-21 @ 06:00
Wind Visibility
Variable at 3 knots Greater than 6 miles
Clouds
  • Scattered at 3,500' AGL
  • Broken at 20,000' AGL